sensor_id;sensor_type;location;lat;lon;timestamp;P1;durP1;ratioP1;P2;durP2;ratioP2
52274;SDS011;38228;50.940;4.024;2023-11-21T00:00:15;40.53;;;20.05;;
52274;SDS011;38228;50.940;4.024;2023-11-21T00:02:42;47.40;;;20.63;;
52274;SDS011;38228;50.940;4.024;2023-11-21T00:05:12;48.35;;;21.70;;
52274;SDS011;38228;50.940;4.024;2023-11-21T00:07:39;50.35;;;21.27;;
52274;SDS011;38228;50.940;4.024;2023-11-21T00:10:05;46.85;;;20.77;;
52274;SDS011;38228;50.940;4.024;2023-11-21T00:12:33;41.20;;;20.58;;
52274;SDS011;38228;50.940;4.024;2023-11-21T00:14:59;41.03;;;19.98;;
52274;SDS011;38228;50.940;4.024;2023-11-21T00:17:26;46.97;;;21.05;;
52274;SDS011;38228;50.940;4.024;2023-11-21T00:19:52;47.90;;;20.65;;
52274;SDS011;38228;50.940;4.024;2023-11-21T00:22:18;34.88;;;18.80;;
52274;SDS011;38228;50.940;4.024;2023-11-21T00:24:44;44.42;;;21.25;;
52274;SDS011;38228;50.940;4.024;2023-11-21T00:27:10;41.63;;;20.25;;
52274;SDS011;38228;50.940;4.024;2023-11-21T00:29:36;40.10;;;20.08;;
52274;SDS011;38228;50.940;4.024;2023-11-21T00:32:03;39.45;;;21.08;;
52274;SDS011;38228;50.940;4.024;2023-11-21T00:34:30;42.03;;;20.40;;
52274;SDS011;38228;50.940;4.024;2023-11-21T00:36:56;42.05;;;20.63;;
52274;SDS011;38228;50.940;4.024;2023-11-21T00:39:22;46.28;;;19.80;;
52274;SDS011;38228;50.940;4.024;2023-11-21T00:41:49;42.45;;;20.23;;
52274;SDS011;38228;50.940;4.024;2023-11-21T00:44:16;45.97;;;20.23;;
52274;SDS011;38228;50.940;4.024;2023-11-21T00:46:42;40.47;;;19.65;;
52274;SDS011;38228;50.940;4.024;2023-11-21T00:49:08;39.42;;;19.38;;
52274;SDS011;38228;50.940;4.024;2023-11-21T00:51:33;40.05;;;18.92;;
52274;SDS011;38228;50.940;4.024;2023-11-21T00:53:59;34.38;;;18.55;;
52274;SDS011;38228;50.940;4.024;2023-11-21T00:56:26;31.30;;;18.38;;
52274;SDS011;38228;50.940;4.024;2023-11-21T00:58:51;35.90;;;19.00;;
52274;SDS011;38228;50.940;4.024;2023-11-21T01:01:18;36.63;;;17.95;;
52274;SDS011;38228;50.940;4.024;2023-11-21T01:03:48;35.03;;;17.52;;
52274;SDS011;38228;50.940;4.024;2023-11-21T01:06:15;34.88;;;18.13;;
52274;SDS011;38228;50.940;4.024;2023-11-21T01:08:41;35.08;;;18.45;;
52274;SDS011;38228;50.940;4.024;2023-11-21T01:11:07;35.30;;;18.83;;
52274;SDS011;38228;50.940;4.024;2023-11-21T01:13:33;37.28;;;18.02;;
52274;SDS011;38228;50.940;4.024;2023-11-21T01:16:00;33.60;;;17.98;;
52274;SDS011;38228;50.940;4.024;2023-11-21T01:18:26;33.35;;;17.88;;
52274;SDS011;38228;50.940;4.024;2023-11-21T01:20:52;34.47;;;17.88;;
52274;SDS011;38228;50.940;4.024;2023-11-21T01:23:20;32.33;;;17.55;;
52274;SDS011;38228;50.940;4.024;2023-11-21T01:25:46;33.90;;;17.75;;
52274;SDS011;38228;50.940;4.024;2023-11-21T01:28:11;33.40;;;18.10;;
52274;SDS011;38228;50.940;4.024;2023-11-21T01:30:37;32.83;;;17.65;;
52274;SDS011;38228;50.940;4.024;2023-11-21T01:33:03;31.92;;;16.80;;
52274;SDS011;38228;50.940;4.024;2023-11-21T01:35:29;31.30;;;17.17;;
52274;SDS011;38228;50.940;4.024;2023-11-21T01:37:55;29.15;;;16.70;;
52274;SDS011;38228;50.940;4.024;2023-11-21T01:40:21;29.02;;;16.60;;
52274;SDS011;38228;50.940;4.024;2023-11-21T01:42:47;29.30;;;17.05;;
52274;SDS011;38228;50.940;4.024;2023-11-21T01:45:13;28.40;;;16.42;;
52274;SDS011;38228;50.940;4.024;2023-11-21T01:47:40;31.13;;;17.65;;
52274;SDS011;38228;50.940;4.024;2023-11-21T01:50:07;29.05;;;17.20;;
52274;SDS011;38228;50.940;4.024;2023-11-21T01:52:37;32.33;;;17.65;;
52274;SDS011;38228;50.940;4.024;2023-11-21T01:55:04;35.95;;;17.23;;
52274;SDS011;38228;50.940;4.024;2023-11-21T01:57:33;31.77;;;18.05;;
52274;SDS011;38228;50.940;4.024;2023-11-21T02:00:00;33.40;;;17.38;;
52274;SDS011;38228;50.940;4.024;2023-11-21T02:02:40;31.27;;;17.52;;
52274;SDS011;38228;50.940;4.024;2023-11-21T02:05:10;31.60;;;17.83;;
52274;SDS011;38228;50.940;4.024;2023-11-21T02:07:47;36.42;;;17.20;;
52274;SDS011;38228;50.940;4.024;2023-11-21T02:10:13;36.92;;;18.20;;
52274;SDS011;38228;50.940;4.024;2023-11-21T02:12:40;36.25;;;17.90;;
52274;SDS011;38228;50.940;4.024;2023-11-21T02:15:07;34.97;;;16.52;;
52274;SDS011;38228;50.940;4.024;2023-11-21T02:17:41;33.60;;;18.10;;
52274;SDS011;38228;50.940;4.024;2023-11-21T02:20:09;31.80;;;17.27;;
52274;SDS011;38228;50.940;4.024;2023-11-21T02:27:53;30.98;;;17.60;;
52274;SDS011;38228;50.940;4.024;2023-11-21T02:30:20;36.85;;;18.05;;
52274;SDS011;38228;50.940;4.024;2023-11-21T02:32:50;36.55;;;18.63;;
52274;SDS011;38228;50.940;4.024;2023-11-21T02:35:22;31.23;;;16.92;;
52274;SDS011;38228;50.940;4.024;2023-11-21T02:37:51;30.35;;;16.67;;
52274;SDS011;38228;50.940;4.024;2023-11-21T02:40:17;30.55;;;17.25;;
52274;SDS011;38228;50.940;4.024;2023-11-21T02:42:45;34.97;;;17.63;;
52274;SDS011;38228;50.940;4.024;2023-11-21T02:45:18;29.77;;;16.90;;
52274;SDS011;38228;50.940;4.024;2023-11-21T02:47:46;33.17;;;16.75;;
52274;SDS011;38228;50.940;4.024;2023-11-21T02:50:12;26.42;;;16.70;;
52274;SDS011;38228;50.940;4.024;2023-11-21T02:52:38;31.00;;;16.98;;
52274;SDS011;38228;50.940;4.024;2023-11-21T02:55:05;33.90;;;18.35;;
52274;SDS011;38228;50.940;4.024;2023-11-21T02:57:34;33.38;;;17.83;;
52274;SDS011;38228;50.940;4.024;2023-11-21T03:00:00;33.28;;;17.58;;
52274;SDS011;38228;50.940;4.024;2023-11-21T03:02:26;31.00;;;16.95;;
52274;SDS011;38228;50.940;4.024;2023-11-21T03:04:51;31.42;;;17.10;;
52274;SDS011;38228;50.940;4.024;2023-11-21T03:07:17;30.15;;;16.77;;
52274;SDS011;38228;50.940;4.024;2023-11-21T03:09:46;29.65;;;16.58;;
52274;SDS011;38228;50.940;4.024;2023-11-21T03:12:12;33.85;;;17.77;;
52274;SDS011;38228;50.940;4.024;2023-11-21T03:14:41;32.92;;;16.33;;
52274;SDS011;38228;50.940;4.024;2023-11-21T03:17:07;26.98;;;16.20;;
52274;SDS011;38228;50.940;4.024;2023-11-21T03:19:32;42.58;;;16.98;;
52274;SDS011;38228;50.940;4.024;2023-11-21T03:21:58;30.45;;;16.55;;
52274;SDS011;38228;50.940;4.024;2023-11-21T03:24:24;30.98;;;16.73;;
52274;SDS011;38228;50.940;4.024;2023-11-21T03:26:51;32.45;;;17.20;;
52274;SDS011;38228;50.940;4.024;2023-11-21T03:29:17;30.90;;;16.92;;
52274;SDS011;38228;50.940;4.024;2023-11-21T03:31:43;40.40;;;17.67;;
52274;SDS011;38228;50.940;4.024;2023-11-21T03:34:11;34.35;;;16.67;;
52274;SDS011;38228;50.940;4.024;2023-11-21T03:36:41;34.30;;;17.15;;
52274;SDS011;38228;50.940;4.024;2023-11-21T03:39:08;29.90;;;17.45;;
52274;SDS011;38228;50.940;4.024;2023-11-21T03:41:34;30.33;;;16.95;;
52274;SDS011;38228;50.940;4.024;2023-11-21T03:43:59;31.63;;;17.48;;
52274;SDS011;38228;50.940;4.024;2023-11-21T03:46:25;31.52;;;17.23;;
52274;SDS011;38228;50.940;4.024;2023-11-21T03:48:51;31.17;;;17.30;;
52274;SDS011;38228;50.940;4.024;2023-11-21T03:51:16;27.08;;;15.90;;
52274;SDS011;38228;50.940;4.024;2023-11-21T03:53:42;28.80;;;17.45;;
52274;SDS011;38228;50.940;4.024;2023-11-21T03:56:08;33.38;;;16.67;;
52274;SDS011;38228;50.940;4.024;2023-11-21T03:58:34;34.10;;;17.13;;
52274;SDS011;38228;50.940;4.024;2023-11-21T04:00:59;33.20;;;18.35;;
52274;SDS011;38228;50.940;4.024;2023-11-21T04:03:25;34.67;;;18.08;;
52274;SDS011;38228;50.940;4.024;2023-11-21T04:05:51;29.38;;;16.75;;
52274;SDS011;38228;50.940;4.024;2023-11-21T04:08:16;29.60;;;16.05;;
52274;SDS011;38228;50.940;4.024;2023-11-21T04:10:42;29.83;;;17.17;;
52274;SDS011;38228;50.940;4.024;2023-11-21T04:13:08;30.15;;;17.10;;
52274;SDS011;38228;50.940;4.024;2023-11-21T04:15:34;34.97;;;16.98;;
52274;SDS011;38228;50.940;4.024;2023-11-21T04:17:59;32.53;;;16.77;;
52274;SDS011;38228;50.940;4.024;2023-11-21T04:20:25;33.30;;;18.08;;
52274;SDS011;38228;50.940;4.024;2023-11-21T04:22:51;32.88;;;17.55;;
52274;SDS011;38228;50.940;4.024;2023-11-21T04:25:17;37.83;;;18.52;;
52274;SDS011;38228;50.940;4.024;2023-11-21T04:27:43;35.22;;;17.77;;
52274;SDS011;38228;50.940;4.024;2023-11-21T04:30:10;31.35;;;17.40;;
52274;SDS011;38228;50.940;4.024;2023-11-21T04:32:37;27.50;;;17.05;;
52274;SDS011;38228;50.940;4.024;2023-11-21T04:35:04;28.92;;;16.65;;
52274;SDS011;38228;50.940;4.024;2023-11-21T04:37:30;28.63;;;16.92;;
52274;SDS011;38228;50.940;4.024;2023-11-21T04:39:56;30.15;;;17.48;;
52274;SDS011;38228;50.940;4.024;2023-11-21T04:42:21;29.55;;;17.13;;
52274;SDS011;38228;50.940;4.024;2023-11-21T04:44:48;29.17;;;17.33;;
52274;SDS011;38228;50.940;4.024;2023-11-21T04:47:14;27.58;;;16.50;;
52274;SDS011;38228;50.940;4.024;2023-11-21T04:49:42;28.85;;;17.15;;
52274;SDS011;38228;50.940;4.024;2023-11-21T04:52:08;35.38;;;17.40;;
52274;SDS011;38228;50.940;4.024;2023-11-21T04:54:35;28.63;;;16.45;;
52274;SDS011;38228;50.940;4.024;2023-11-21T04:57:01;33.58;;;16.38;;
52274;SDS011;38228;50.940;4.024;2023-11-21T04:59:27;30.27;;;17.27;;
52274;SDS011;38228;50.940;4.024;2023-11-21T05:01:53;33.03;;;16.67;;
52274;SDS011;38228;50.940;4.024;2023-11-21T05:04:19;32.83;;;17.20;;
52274;SDS011;38228;50.940;4.024;2023-11-21T05:06:47;31.52;;;17.55;;
52274;SDS011;38228;50.940;4.024;2023-11-21T05:09:13;31.45;;;17.15;;
52274;SDS011;38228;50.940;4.024;2023-11-21T05:11:39;34.13;;;17.42;;
52274;SDS011;38228;50.940;4.024;2023-11-21T05:14:05;30.50;;;16.70;;
52274;SDS011;38228;50.940;4.024;2023-11-21T05:16:31;30.00;;;16.10;;
52274;SDS011;38228;50.940;4.024;2023-11-21T05:18:57;32.55;;;16.50;;
52274;SDS011;38228;50.940;4.024;2023-11-21T05:21:26;28.10;;;17.15;;
52274;SDS011;38228;50.940;4.024;2023-11-21T05:23:52;31.33;;;16.25;;
52274;SDS011;38228;50.940;4.024;2023-11-21T05:26:18;33.88;;;16.45;;
52274;SDS011;38228;50.940;4.024;2023-11-21T05:28:43;29.63;;;16.60;;
52274;SDS011;38228;50.940;4.024;2023-11-21T05:31:09;27.90;;;15.70;;
52274;SDS011;38228;50.940;4.024;2023-11-21T05:33:36;26.02;;;15.80;;
52274;SDS011;38228;50.940;4.024;2023-11-21T05:36:01;28.33;;;17.33;;
52274;SDS011;38228;50.940;4.024;2023-11-21T05:38:28;30.25;;;17.48;;
52274;SDS011;38228;50.940;4.024;2023-11-21T05:40:54;33.50;;;16.63;;
52274;SDS011;38228;50.940;4.024;2023-11-21T05:43:20;28.33;;;17.23;;
52274;SDS011;38228;50.940;4.024;2023-11-21T05:45:46;32.78;;;16.63;;
52274;SDS011;38228;50.940;4.024;2023-11-21T05:48:11;31.27;;;16.92;;
52274;SDS011;38228;50.940;4.024;2023-11-21T05:50:37;27.08;;;17.13;;
52274;SDS011;38228;50.940;4.024;2023-11-21T05:53:03;29.58;;;16.10;;
52274;SDS011;38228;50.940;4.024;2023-11-21T05:55:29;26.98;;;16.15;;
52274;SDS011;38228;50.940;4.024;2023-11-21T05:57:55;31.58;;;16.77;;
52274;SDS011;38228;50.940;4.024;2023-11-21T06:00:20;30.02;;;16.23;;
52274;SDS011;38228;50.940;4.024;2023-11-21T06:02:50;30.70;;;16.25;;
52274;SDS011;38228;50.940;4.024;2023-11-21T06:05:17;29.17;;;16.70;;
52274;SDS011;38228;50.940;4.024;2023-11-21T06:07:44;29.50;;;16.85;;
52274;SDS011;38228;50.940;4.024;2023-11-21T06:10:10;27.30;;;16.40;;
52274;SDS011;38228;50.940;4.024;2023-11-21T06:12:39;30.50;;;16.95;;
52274;SDS011;38228;50.940;4.024;2023-11-21T06:15:07;33.63;;;17.13;;
52274;SDS011;38228;50.940;4.024;2023-11-21T06:17:37;25.33;;;16.10;;
52274;SDS011;38228;50.940;4.024;2023-11-21T06:20:05;31.08;;;15.82;;
52274;SDS011;38228;50.940;4.024;2023-11-21T06:22:34;29.77;;;16.40;;
52274;SDS011;38228;50.940;4.024;2023-11-21T06:25:01;31.10;;;16.30;;
52274;SDS011;38228;50.940;4.024;2023-11-21T06:27:31;32.60;;;16.20;;
52274;SDS011;38228;50.940;4.024;2023-11-21T06:29:58;33.10;;;16.75;;
52274;SDS011;38228;50.940;4.024;2023-11-21T06:32:23;27.77;;;16.98;;
52274;SDS011;38228;50.940;4.024;2023-11-21T06:34:49;36.08;;;17.27;;
52274;SDS011;38228;50.940;4.024;2023-11-21T06:37:15;32.78;;;16.77;;
52274;SDS011;38228;50.940;4.024;2023-11-21T06:39:42;31.67;;;16.80;;
52274;SDS011;38228;50.940;4.024;2023-11-21T06:42:07;35.95;;;18.55;;
52274;SDS011;38228;50.940;4.024;2023-11-21T06:44:33;32.38;;;17.13;;
52274;SDS011;38228;50.940;4.024;2023-11-21T06:47:00;33.45;;;17.70;;
52274;SDS011;38228;50.940;4.024;2023-11-21T06:49:26;31.10;;;17.92;;
52274;SDS011;38228;50.940;4.024;2023-11-21T06:51:52;33.92;;;18.55;;
52274;SDS011;38228;50.940;4.024;2023-11-21T06:54:19;38.20;;;20.50;;
52274;SDS011;38228;50.940;4.024;2023-11-21T06:56:45;37.92;;;19.92;;
52274;SDS011;38228;50.940;4.024;2023-11-21T06:59:12;40.83;;;21.40;;
52274;SDS011;38228;50.940;4.024;2023-11-21T07:01:38;45.15;;;21.40;;
52274;SDS011;38228;50.940;4.024;2023-11-21T07:04:06;43.58;;;22.02;;
52274;SDS011;38228;50.940;4.024;2023-11-21T07:06:32;48.72;;;24.55;;
52274;SDS011;38228;50.940;4.024;2023-11-21T07:08:58;63.50;;;24.15;;
52274;SDS011;38228;50.940;4.024;2023-11-21T07:11:24;53.28;;;24.00;;
52274;SDS011;38228;50.940;4.024;2023-11-21T07:13:50;54.63;;;24.90;;
52274;SDS011;38228;50.940;4.024;2023-11-21T07:16:17;59.50;;;26.33;;
52274;SDS011;38228;50.940;4.024;2023-11-21T07:18:43;52.38;;;26.20;;
52274;SDS011;38228;50.940;4.024;2023-11-21T07:21:10;64.97;;;27.75;;
52274;SDS011;38228;50.940;4.024;2023-11-21T07:23:37;63.78;;;29.45;;
52274;SDS011;38228;50.940;4.024;2023-11-21T07:26:03;65.53;;;28.55;;
52274;SDS011;38228;50.940;4.024;2023-11-21T07:28:34;68.53;;;30.02;;
52274;SDS011;38228;50.940;4.024;2023-11-21T07:31:00;74.93;;;29.65;;
52274;SDS011;38228;50.940;4.024;2023-11-21T07:33:26;74.13;;;31.90;;
52274;SDS011;38228;50.940;4.024;2023-11-21T07:35:52;64.90;;;30.77;;
52274;SDS011;38228;50.940;4.024;2023-11-21T07:38:18;72.43;;;31.20;;
52274;SDS011;38228;50.940;4.024;2023-11-21T07:40:43;78.60;;;29.85;;
52274;SDS011;38228;50.940;4.024;2023-11-21T07:43:09;72.78;;;30.33;;
52274;SDS011;38228;50.940;4.024;2023-11-21T07:45:35;70.32;;;29.35;;
52274;SDS011;38228;50.940;4.024;2023-11-21T07:48:02;71.35;;;30.13;;
52274;SDS011;38228;50.940;4.024;2023-11-21T07:50:30;82.57;;;29.77;;
52274;SDS011;38228;50.940;4.024;2023-11-21T07:52:57;69.45;;;30.55;;
52274;SDS011;38228;50.940;4.024;2023-11-21T07:55:23;62.90;;;27.02;;
52274;SDS011;38228;50.940;4.024;2023-11-21T07:57:50;65.95;;;25.48;;
52274;SDS011;38228;50.940;4.024;2023-11-21T08:00:15;66.70;;;26.33;;
52274;SDS011;38228;50.940;4.024;2023-11-21T08:02:41;68.93;;;26.70;;
52274;SDS011;38228;50.940;4.024;2023-11-21T08:05:08;57.95;;;24.63;;
52274;SDS011;38228;50.940;4.024;2023-11-21T08:07:34;69.43;;;24.98;;
52274;SDS011;38228;50.940;4.024;2023-11-21T08:10:00;76.40;;;26.75;;
52274;SDS011;38228;50.940;4.024;2023-11-21T08:12:25;87.72;;;27.98;;
52274;SDS011;38228;50.940;4.024;2023-11-21T08:14:53;92.50;;;31.02;;
52274;SDS011;38228;50.940;4.024;2023-11-21T08:17:18;90.32;;;29.52;;
52274;SDS011;38228;50.940;4.024;2023-11-21T08:19:47;110.57;;;30.92;;
52274;SDS011;38228;50.940;4.024;2023-11-21T08:22:16;111.85;;;31.55;;
52274;SDS011;38228;50.940;4.024;2023-11-21T08:24:43;116.07;;;33.35;;
52274;SDS011;38228;50.940;4.024;2023-11-21T08:27:09;128.88;;;35.63;;
52274;SDS011;38228;50.940;4.024;2023-11-21T08:29:35;111.45;;;33.30;;
52274;SDS011;38228;50.940;4.024;2023-11-21T08:32:01;119.93;;;34.10;;
52274;SDS011;38228;50.940;4.024;2023-11-21T08:34:28;123.70;;;33.97;;
52274;SDS011;38228;50.940;4.024;2023-11-21T08:36:54;109.32;;;33.20;;
52274;SDS011;38228;50.940;4.024;2023-11-21T08:39:20;106.43;;;31.30;;
52274;SDS011;38228;50.940;4.024;2023-11-21T08:41:49;102.35;;;30.48;;
52274;SDS011;38228;50.940;4.024;2023-11-21T08:44:19;104.57;;;32.45;;
52274;SDS011;38228;50.940;4.024;2023-11-21T08:46:45;123.20;;;33.80;;
52274;SDS011;38228;50.940;4.024;2023-11-21T08:49:12;103.60;;;32.00;;
52274;SDS011;38228;50.940;4.024;2023-11-21T08:51:38;105.75;;;31.38;;
52274;SDS011;38228;50.940;4.024;2023-11-21T08:54:04;118.38;;;33.60;;
52274;SDS011;38228;50.940;4.024;2023-11-21T08:56:33;111.60;;;32.08;;
52274;SDS011;38228;50.940;4.024;2023-11-21T08:58:59;109.22;;;32.97;;
52274;SDS011;38228;50.940;4.024;2023-11-21T09:01:28;113.22;;;33.80;;
52274;SDS011;38228;50.940;4.024;2023-11-21T09:03:56;116.63;;;33.08;;
52274;SDS011;38228;50.940;4.024;2023-11-21T09:06:25;108.65;;;33.20;;
52274;SDS011;38228;50.940;4.024;2023-11-21T09:08:50;108.70;;;33.80;;
52274;SDS011;38228;50.940;4.024;2023-11-21T09:11:16;99.90;;;34.03;;
52274;SDS011;38228;50.940;4.024;2023-11-21T09:13:42;106.90;;;34.47;;
52274;SDS011;38228;50.940;4.024;2023-11-21T09:16:08;104.13;;;34.75;;
52274;SDS011;38228;50.940;4.024;2023-11-21T09:18:34;94.43;;;33.03;;
52274;SDS011;38228;50.940;4.024;2023-11-21T09:21:00;91.18;;;33.03;;
52274;SDS011;38228;50.940;4.024;2023-11-21T09:23:26;83.30;;;30.65;;
52274;SDS011;38228;50.940;4.024;2023-11-21T09:25:51;78.53;;;30.70;;
52274;SDS011;38228;50.940;4.024;2023-11-21T09:28:19;82.57;;;30.20;;
52274;SDS011;38228;50.940;4.024;2023-11-21T09:30:45;69.13;;;25.85;;
52274;SDS011;38228;50.940;4.024;2023-11-21T09:33:10;47.88;;;20.92;;
52274;SDS011;38228;50.940;4.024;2023-11-21T09:35:39;47.00;;;22.23;;
52274;SDS011;38228;50.940;4.024;2023-11-21T09:38:05;43.38;;;21.95;;
52274;SDS011;38228;50.940;4.024;2023-11-21T09:40:35;52.63;;;22.55;;
52274;SDS011;38228;50.940;4.024;2023-11-21T09:43:02;54.45;;;24.52;;
52274;SDS011;38228;50.940;4.024;2023-11-21T09:45:34;50.72;;;22.67;;
52274;SDS011;38228;50.940;4.024;2023-11-21T09:48:00;47.97;;;22.13;;
52274;SDS011;38228;50.940;4.024;2023-11-21T09:50:27;44.63;;;23.05;;
52274;SDS011;38228;50.940;4.024;2023-11-21T09:55:44;45.60;;;21.92;;
52274;SDS011;38228;50.940;4.024;2023-11-21T09:58:11;46.38;;;24.48;;
52274;SDS011;38228;50.940;4.024;2023-11-21T10:00:43;37.92;;;20.35;;
52274;SDS011;38228;50.940;4.024;2023-11-21T10:03:12;36.50;;;18.88;;
52274;SDS011;38228;50.940;4.024;2023-11-21T10:05:39;34.85;;;17.83;;
52274;SDS011;38228;50.940;4.024;2023-11-21T10:08:07;35.50;;;18.52;;
52274;SDS011;38228;50.940;4.024;2023-11-21T10:10:35;34.42;;;18.00;;
52274;SDS011;38228;50.940;4.024;2023-11-21T10:13:02;32.35;;;17.67;;
52274;SDS011;38228;50.940;4.024;2023-11-21T10:15:32;28.13;;;15.90;;
52274;SDS011;38228;50.940;4.024;2023-11-21T10:18:03;29.35;;;15.95;;
52274;SDS011;38228;50.940;4.024;2023-11-21T10:20:31;29.23;;;15.30;;
52274;SDS011;38228;50.940;4.024;2023-11-21T10:22:59;28.08;;;15.15;;
52274;SDS011;38228;50.940;4.024;2023-11-21T10:25:28;25.58;;;14.30;;
52274;SDS011;38228;50.940;4.024;2023-11-21T10:27:59;21.63;;;12.98;;
52274;SDS011;38228;50.940;4.024;2023-11-21T10:30:33;23.10;;;12.15;;
52274;SDS011;38228;50.940;4.024;2023-11-21T10:33:06;19.17;;;11.50;;
52274;SDS011;38228;50.940;4.024;2023-11-21T10:35:43;21.83;;;10.85;;
52274;SDS011;38228;50.940;4.024;2023-11-21T10:38:15;18.25;;;9.73;;
52274;SDS011;38228;50.940;4.024;2023-11-21T10:40:42;21.00;;;10.43;;
52274;SDS011;38228;50.940;4.024;2023-11-21T10:43:09;16.40;;;8.65;;
52274;SDS011;38228;50.940;4.024;2023-11-21T10:45:39;13.57;;;7.80;;
52274;SDS011;38228;50.940;4.024;2023-11-21T10:48:08;17.15;;;7.72;;
52274;SDS011;38228;50.940;4.024;2023-11-21T10:50:42;13.07;;;6.88;;
52274;SDS011;38228;50.940;4.024;2023-11-21T10:53:09;13.95;;;6.28;;
52274;SDS011;38228;50.940;4.024;2023-11-21T10:55:36;11.77;;;6.00;;
52274;SDS011;38228;50.940;4.024;2023-11-21T10:58:03;16.58;;;5.97;;
52274;SDS011;38228;50.940;4.024;2023-11-21T11:00:30;13.52;;;6.35;;
52274;SDS011;38228;50.940;4.024;2023-11-21T11:02:57;7.93;;;4.82;;
52274;SDS011;38228;50.940;4.024;2023-11-21T11:05:24;6.38;;;3.58;;
52274;SDS011;38228;50.940;4.024;2023-11-21T11:08:06;8.05;;;3.58;;
52274;SDS011;38228;50.940;4.024;2023-11-21T11:10:33;11.90;;;4.43;;
52274;SDS011;38228;50.940;4.024;2023-11-21T11:13:00;8.18;;;4.57;;
52274;SDS011;38228;50.940;4.024;2023-11-21T11:15:27;10.35;;;4.20;;
52274;SDS011;38228;50.940;4.024;2023-11-21T11:17:53;11.10;;;3.97;;
52274;SDS011;38228;50.940;4.024;2023-11-21T11:20:23;10.23;;;4.05;;
52274;SDS011;38228;50.940;4.024;2023-11-21T11:28:10;5.70;;;2.60;;
52274;SDS011;38228;50.940;4.024;2023-11-21T11:36:10;6.28;;;2.95;;
52274;SDS011;38228;50.940;4.024;2023-11-21T11:38:47;8.25;;;2.90;;
52274;SDS011;38228;50.940;4.024;2023-11-21T11:41:27;9.35;;;3.05;;
52274;SDS011;38228;50.940;4.024;2023-11-21T11:43:57;8.10;;;3.50;;
52274;SDS011;38228;50.940;4.024;2023-11-21T11:49:27;8.55;;;3.33;;
52274;SDS011;38228;50.940;4.024;2023-11-21T11:54:57;8.77;;;3.40;;
52274;SDS011;38228;50.940;4.024;2023-11-21T11:57:24;7.63;;;2.42;;
52274;SDS011;38228;50.940;4.024;2023-11-21T12:00:10;7.97;;;2.25;;
52274;SDS011;38228;50.940;4.024;2023-11-21T12:02:37;7.68;;;2.20;;
52274;SDS011;38228;50.940;4.024;2023-11-21T12:05:10;10.77;;;2.80;;
52274;SDS011;38228;50.940;4.024;2023-11-21T12:07:44;8.13;;;2.25;;
52274;SDS011;38228;50.940;4.024;2023-11-21T12:10:14;6.90;;;2.22;;
52274;SDS011;38228;50.940;4.024;2023-11-21T12:12:49;5.68;;;2.40;;
52274;SDS011;38228;50.940;4.024;2023-11-21T12:15:17;7.70;;;2.78;;
52274;SDS011;38228;50.940;4.024;2023-11-21T12:17:44;7.97;;;3.00;;
52274;SDS011;38228;50.940;4.024;2023-11-21T12:20:11;8.65;;;2.60;;
52274;SDS011;38228;50.940;4.024;2023-11-21T12:22:45;6.47;;;2.60;;
52274;SDS011;38228;50.940;4.024;2023-11-21T12:25:21;7.95;;;2.60;;
52274;SDS011;38228;50.940;4.024;2023-11-21T12:27:49;3.85;;;2.53;;
52274;SDS011;38228;50.940;4.024;2023-11-21T12:30:18;8.05;;;2.70;;
52274;SDS011;38228;50.940;4.024;2023-11-21T12:32:50;6.90;;;2.60;;
52274;SDS011;38228;50.940;4.024;2023-11-21T12:35:18;4.97;;;2.50;;
52274;SDS011;38228;50.940;4.024;2023-11-21T12:37:44;3.38;;;1.95;;
52274;SDS011;38228;50.940;4.024;2023-11-21T12:40:12;5.43;;;2.80;;
52274;SDS011;38228;50.940;4.024;2023-11-21T12:42:47;6.07;;;2.97;;
52274;SDS011;38228;50.940;4.024;2023-11-21T12:47:46;6.55;;;3.70;;
52274;SDS011;38228;50.940;4.024;2023-11-21T12:50:15;7.90;;;3.57;;
52274;SDS011;38228;50.940;4.024;2023-11-21T12:52:54;10.13;;;4.03;;
52274;SDS011;38228;50.940;4.024;2023-11-21T12:55:23;10.80;;;3.60;;
52274;SDS011;38228;50.940;4.024;2023-11-21T12:57:54;11.15;;;4.75;;
52274;SDS011;38228;50.940;4.024;2023-11-21T13:01:06;9.82;;;5.28;;
52274;SDS011;38228;50.940;4.024;2023-11-21T13:03:13;18.15;;;9.95;;
52274;SDS011;38228;50.940;4.024;2023-11-21T13:05:48;8.48;;;5.07;;
52274;SDS011;38228;50.940;4.024;2023-11-21T13:08:16;10.13;;;4.82;;
52274;SDS011;38228;50.940;4.024;2023-11-21T13:10:46;8.60;;;5.32;;
52274;SDS011;38228;50.940;4.024;2023-11-21T13:13:15;13.38;;;5.97;;
52274;SDS011;38228;50.940;4.024;2023-11-21T13:15:53;12.68;;;5.50;;
52274;SDS011;38228;50.940;4.024;2023-11-21T13:18:23;11.02;;;6.30;;
52274;SDS011;38228;50.940;4.024;2023-11-21T13:20:52;8.73;;;5.43;;
52274;SDS011;38228;50.940;4.024;2023-11-21T13:23:19;12.10;;;6.80;;
52274;SDS011;38228;50.940;4.024;2023-11-21T13:25:45;11.75;;;6.68;;
52274;SDS011;38228;50.940;4.024;2023-11-21T13:28:13;12.38;;;7.85;;
52274;SDS011;38228;50.940;4.024;2023-11-21T13:30:40;17.23;;;8.25;;
52274;SDS011;38228;50.940;4.024;2023-11-21T13:33:07;13.32;;;8.25;;
52274;SDS011;38228;50.940;4.024;2023-11-21T13:35:33;13.10;;;8.85;;
52274;SDS011;38228;50.940;4.024;2023-11-21T13:38:13;12.23;;;8.15;;
52274;SDS011;38228;50.940;4.024;2023-11-21T13:40:51;11.73;;;8.07;;
52274;SDS011;38228;50.940;4.024;2023-11-21T13:43:22;11.15;;;8.00;;
52274;SDS011;38228;50.940;4.024;2023-11-21T13:45:50;12.63;;;7.88;;
52274;SDS011;38228;50.940;4.024;2023-11-21T13:48:33;11.90;;;7.68;;
52274;SDS011;38228;50.940;4.024;2023-11-21T13:51:13;11.50;;;7.00;;
52274;SDS011;38228;50.940;4.024;2023-11-21T13:53:43;11.90;;;8.48;;
52274;SDS011;38228;50.940;4.024;2023-11-21T13:56:17;11.52;;;7.50;;
52274;SDS011;38228;50.940;4.024;2023-11-21T13:58:51;14.05;;;6.88;;
52274;SDS011;38228;50.940;4.024;2023-11-21T14:01:19;13.23;;;7.75;;
52274;SDS011;38228;50.940;4.024;2023-11-21T14:03:55;12.05;;;7.10;;
52274;SDS011;38228;50.940;4.024;2023-11-21T14:06:43;11.88;;;6.47;;
52274;SDS011;38228;50.940;4.024;2023-11-21T14:09:16;8.75;;;6.15;;
52274;SDS011;38228;50.940;4.024;2023-11-21T14:11:57;9.95;;;6.20;;
52274;SDS011;38228;50.940;4.024;2023-11-21T14:14:24;8.15;;;5.00;;
52274;SDS011;38228;50.940;4.024;2023-11-21T14:16:51;8.60;;;5.07;;
52274;SDS011;38228;50.940;4.024;2023-11-21T14:19:17;8.75;;;4.75;;
52274;SDS011;38228;50.940;4.024;2023-11-21T14:21:44;7.65;;;4.43;;
52274;SDS011;38228;50.940;4.024;2023-11-21T14:24:13;8.00;;;5.15;;
52274;SDS011;38228;50.940;4.024;2023-11-21T14:26:42;8.65;;;5.05;;
52274;SDS011;38228;50.940;4.024;2023-11-21T14:29:11;7.85;;;4.90;;
52274;SDS011;38228;50.940;4.024;2023-11-21T14:31:39;8.88;;;5.22;;
52274;SDS011;38228;50.940;4.024;2023-11-21T14:34:08;10.52;;;6.00;;
52274;SDS011;38228;50.940;4.024;2023-11-21T14:36:35;6.72;;;4.93;;
52274;SDS011;38228;50.940;4.024;2023-11-21T14:39:04;8.93;;;5.90;;
52274;SDS011;38228;50.940;4.024;2023-11-21T14:41:36;8.95;;;5.78;;
52274;SDS011;38228;50.940;4.024;2023-11-21T14:44:03;8.05;;;5.35;;
52274;SDS011;38228;50.940;4.024;2023-11-21T14:46:32;8.85;;;5.03;;
52274;SDS011;38228;50.940;4.024;2023-11-21T14:49:00;8.20;;;5.40;;
52274;SDS011;38228;50.940;4.024;2023-11-21T14:51:44;8.43;;;4.75;;
52274;SDS011;38228;50.940;4.024;2023-11-21T14:54:28;8.18;;;5.22;;
52274;SDS011;38228;50.940;4.024;2023-11-21T14:57:08;8.85;;;5.53;;